createdAt,value
2018-11-26T00:00:31.159Z,151.60
2018-11-26T00:04:40.291Z,145.20
2018-11-26T00:08:47.609Z,143.10
2018-11-26T00:12:54.459Z,119.33
2018-11-26T00:17:18.692Z,135.40
2018-11-26T00:21:26.733Z,124.87
2018-11-26T00:25:34.057Z,145.87
2018-11-26T00:29:40.741Z,121.27
2018-11-26T00:33:47.241Z,110.67
2018-11-26T00:37:55.380Z,125.90
2018-11-26T00:42:01.858Z,126.17
2018-11-26T00:46:08.664Z,116.07
2018-11-26T00:50:15.299Z,132.00
2018-11-26T00:54:22.066Z,136.70
2018-11-26T00:58:28.610Z,137.13
2018-11-26T01:02:37.187Z,111.63
2018-11-26T01:07:01.783Z,118.77
2018-11-26T01:11:10.943Z,108.60
2018-11-26T01:15:17.477Z,118.43
2018-11-26T01:19:27.430Z,112.37
2018-11-26T01:23:33.944Z,117.07
2018-11-26T01:27:41.159Z,109.07
2018-11-26T01:31:47.677Z,102.47
2018-11-26T01:35:54.582Z,99.40
2018-11-26T01:40:01.091Z,116.20
2018-11-26T01:44:08.949Z,75.27
2018-11-26T01:48:15.426Z,115.53
2018-11-26T01:52:21.991Z,111.23
2018-11-26T01:56:28.473Z,66.50
2018-11-26T02:00:42.077Z,122.43
2018-11-26T02:04:48.521Z,104.67
2018-11-26T02:09:13.257Z,92.03
2018-11-26T02:13:37.162Z,84.57
2018-11-26T02:17:47.330Z,87.17
2018-11-26T02:21:53.814Z,73.90
2018-11-26T02:26:01.713Z,91.17
2018-11-26T02:30:09.411Z,97.47
2018-11-26T02:34:36.211Z,93.40
2018-11-26T02:38:45.177Z,54.93
2018-11-26T02:42:52.169Z,83.00
2018-11-26T02:46:58.653Z,66.13
2018-11-26T02:51:06.316Z,70.57
2018-11-26T02:55:12.773Z,73.37
2018-11-26T02:59:19.511Z,77.53
2018-11-26T03:03:25.970Z,90.63
2018-11-26T03:07:33.937Z,81.57
2018-11-26T03:11:40.423Z,75.10
2018-11-26T03:15:48.193Z,87.40
2018-11-26T03:19:56.954Z,88.27
2018-11-26T03:24:05.273Z,65.73
2018-11-26T03:28:11.724Z,98.87
2018-11-26T03:32:18.453Z,92.90
2018-11-26T03:36:42.431Z,48.83
2018-11-26T03:40:59.495Z,75.40
2018-11-26T03:45:07.616Z,54.83
2018-11-26T03:49:14.280Z,110.73
2018-11-26T03:53:20.724Z,91.43
2018-11-26T03:57:29.085Z,84.33
2018-11-26T04:01:36.455Z,73.87
2018-11-26T04:05:43.360Z,88.60
2018-11-26T04:09:51.742Z,71.17
2018-11-26T04:13:59.442Z,58.00
2018-11-26T04:18:23.548Z,105.57
2018-11-26T04:22:31.073Z,113.57
2018-11-26T04:26:37.554Z,97.10
2018-11-26T04:30:51.334Z,100.10
2018-11-26T04:35:15.763Z,76.27
2018-11-26T04:39:22.438Z,110.03
2018-11-26T04:43:28.943Z,102.23
2018-11-26T04:47:36.184Z,81.70
2018-11-26T04:52:00.303Z,110.57
2018-11-26T04:56:10.250Z,112.40
2018-11-26T05:00:16.960Z,110.73
2018-11-26T05:04:24.411Z,95.77
2018-11-26T05:08:31.695Z,102.90
2018-11-26T05:12:43.524Z,81.53
2018-11-26T05:16:49.993Z,96.00
2018-11-26T05:20:56.852Z,63.90
2018-11-26T05:25:07.346Z,66.07
2018-11-26T05:29:14.735Z,63.37
2018-11-26T05:33:23.443Z,96.53
2018-11-26T05:37:31.707Z,88.80
2018-11-26T05:41:38.226Z,66.50
2018-11-26T05:45:44.898Z,77.57
2018-11-26T05:49:51.411Z,82.30
2018-11-26T05:54:17.609Z,85.30
2018-11-26T05:58:24.037Z,86.90
2018-11-26T06:02:30.762Z,61.40
2018-11-26T06:06:37.783Z,73.20
2018-11-26T06:10:45.025Z,82.80
2018-11-26T06:14:51.572Z,60.37
2018-11-26T06:19:01.032Z,66.83
2018-11-26T06:23:07.784Z,58.07
2018-11-26T06:27:32.851Z,53.23
2018-11-26T06:31:57.851Z,59.93
2018-11-26T06:36:04.579Z,76.17
2018-11-26T06:40:12.096Z,64.90
2018-11-26T06:44:20.620Z,59.70
2018-11-26T06:48:27.281Z,83.27
2018-11-26T06:52:34.950Z,77.17
2018-11-26T06:56:58.869Z,93.53
2018-11-26T07:01:05.562Z,56.20
2018-11-26T07:05:23.463Z,87.33
2018-11-26T07:09:30.654Z,34.13
2018-11-26T07:13:37.149Z,75.47
2018-11-26T07:17:44.484Z,39.30
2018-11-26T07:21:54.048Z,88.23
2018-11-26T07:26:21.569Z,75.23
2018-11-26T07:30:29.709Z,47.73
2018-11-26T07:34:36.776Z,55.43
2018-11-26T07:38:43.368Z,61.97
2018-11-26T07:43:14.976Z,78.63
2018-11-26T07:47:21.529Z,56.10
2018-11-26T07:51:30.869Z,54.50
2018-11-26T07:55:37.471Z,83.17
2018-11-26T07:59:44.118Z,70.73
2018-11-26T08:03:53.600Z,63.70
2018-11-26T08:08:01.346Z,46.93
2018-11-26T08:12:10.770Z,50.20
2018-11-26T08:16:17.393Z,21.60
2018-11-26T08:20:24.970Z,53.87
2018-11-26T08:24:32.880Z,38.60
2018-11-26T08:28:39.356Z,41.67
2018-11-26T08:32:47.056Z,50.43
2018-11-26T08:37:27.189Z,53.20
2018-11-26T08:41:54.262Z,30.00
2018-11-26T08:46:48.391Z,60.67
2018-11-26T08:50:55.585Z,35.60
2018-11-26T08:55:02.241Z,35.93
2018-11-26T08:59:32.064Z,54.00
2018-11-26T09:03:56.915Z,38.77
2018-11-26T09:08:03.526Z,45.57
2018-11-26T09:12:13.017Z,36.47
2018-11-26T09:16:20.295Z,61.93
2018-11-26T09:20:26.752Z,65.07
2018-11-26T09:24:33.366Z,56.67
2018-11-26T09:28:58.134Z,47.97
2018-11-26T09:33:07.386Z,54.43
2018-11-26T09:37:13.904Z,27.33
2018-11-26T09:41:20.633Z,44.97
2018-11-26T09:45:27.170Z,51.73
2018-11-26T09:49:52.785Z,31.20
2018-11-26T09:53:59.240Z,36.07
2018-11-26T09:58:06.406Z,27.30
2018-11-26T10:02:13.654Z,26.53
2018-11-26T10:06:21.266Z,26.30
2018-11-26T10:10:27.766Z,41.50
2018-11-26T10:14:35.580Z,39.67
2018-11-26T10:18:42.165Z,26.93
2018-11-26T10:22:50.111Z,30.73
2018-11-26T10:26:56.644Z,29.87
2018-11-26T10:31:03.353Z,30.50
2018-11-26T10:35:19.109Z,34.83
2018-11-26T10:39:27.993Z,31.43
2018-11-26T10:43:34.523Z,23.67
2018-11-26T10:47:41.205Z,19.40
2018-11-26T10:51:48.649Z,21.00
2018-11-26T10:55:55.663Z,27.07
2018-11-26T11:00:02.187Z,29.50
2018-11-26T11:04:30.590Z,36.87
2018-11-26T11:08:37.168Z,33.53
2018-11-26T11:12:45.297Z,34.50
2018-11-26T11:16:51.787Z,43.10
2018-11-26T11:20:58.509Z,38.03
2018-11-26T11:25:05.197Z,31.77
2018-11-26T11:29:12.919Z,36.47
2018-11-26T11:37:26.962Z,31.93
2018-11-26T11:41:34.833Z,35.93
2018-11-26T11:45:42.572Z,36.50
2018-11-26T11:50:12.172Z,36.50
2018-11-26T11:54:21.067Z,36.50
2018-11-26T11:58:27.523Z,30.30
2018-11-26T12:02:40.878Z,35.83
2018-11-26T12:07:04.926Z,31.33
2018-11-26T12:11:13.112Z,33.40
2018-11-26T12:15:19.607Z,34.43
2018-11-26T12:19:45.499Z,31.70
2018-11-26T12:23:51.951Z,29.73
2018-11-26T12:27:58.748Z,33.77
2018-11-26T12:32:05.203Z,19.77
2018-11-26T12:36:12.084Z,24.70
2018-11-26T12:40:19.783Z,37.73
2018-11-26T12:44:34.495Z,34.67
2018-11-26T12:48:42.806Z,33.33
2018-11-26T12:52:50.436Z,30.67
2018-11-26T12:57:14.601Z,28.87
2018-11-26T13:01:21.520Z,30.33
2018-11-26T13:05:28.170Z,20.00
2018-11-26T13:09:38.473Z,31.07
2018-11-26T13:13:44.953Z,28.67
2018-11-26T13:17:52.638Z,24.43
2018-11-26T13:21:59.471Z,29.57
2018-11-26T13:26:24.725Z,26.20
2018-11-26T13:30:50.961Z,22.00
2018-11-26T13:34:57.819Z,23.43
2018-11-26T13:39:22.029Z,24.70
2018-11-26T13:43:31.548Z,22.67
2018-11-26T13:47:56.963Z,25.17
2018-11-26T13:52:04.991Z,26.50
2018-11-26T13:56:11.507Z,22.90
2018-11-26T14:00:53.296Z,23.83
2018-11-26T14:05:17.857Z,22.63
2018-11-26T14:09:25.534Z,22.03
2018-11-26T14:13:37.654Z,24.00
2018-11-26T14:17:49.861Z,21.93
2018-11-26T14:21:57.320Z,19.23
2018-11-26T14:26:04.694Z,21.03
2018-11-26T14:30:21.619Z,23.70
2018-11-26T14:34:29.134Z,25.97
2018-11-26T14:38:35.637Z,23.10
2018-11-26T14:42:47.616Z,19.00
2018-11-26T14:47:11.624Z,23.10
2018-11-26T14:51:22.517Z,22.60
2018-11-26T14:55:30.197Z,23.03
2018-11-26T14:59:37.895Z,19.60
2018-11-26T15:03:44.443Z,24.33
2018-11-26T15:07:52.016Z,21.03
2018-11-26T15:12:01.115Z,19.73
2018-11-26T15:16:08.237Z,25.73
2018-11-26T15:20:31.134Z,21.67
2018-11-26T15:24:57.350Z,18.90
2018-11-26T15:29:03.983Z,28.87
2018-11-26T15:33:10.800Z,23.37
2018-11-26T15:37:17.333Z,14.60
2018-11-26T15:41:41.942Z,23.17
2018-11-26T15:45:48.525Z,22.63
2018-11-26T15:49:55.315Z,25.00
2018-11-26T15:54:18.870Z,25.83
2018-11-26T15:58:26.882Z,26.50
2018-11-26T16:02:33.319Z,21.87
2018-11-26T16:06:41.090Z,27.70
2018-11-26T16:10:47.727Z,36.03
2018-11-26T16:14:55.692Z,30.00
2018-11-26T16:19:04.159Z,21.53
2018-11-26T16:23:16.848Z,30.33
2018-11-26T16:27:23.321Z,26.47
2018-11-26T16:31:34.093Z,35.27
2018-11-26T16:35:44.527Z,32.63
2018-11-26T16:39:51.383Z,21.80
2018-11-26T16:43:58.824Z,28.43
2018-11-26T16:48:05.585Z,35.60
2018-11-26T16:52:12.194Z,29.40
2018-11-26T16:56:18.906Z,30.60
2018-11-26T17:00:32.110Z,27.17
2018-11-26T17:04:45.716Z,31.30
2018-11-26T17:08:52.225Z,23.33
2018-11-26T17:13:17.057Z,38.47
2018-11-26T17:17:24.542Z,32.93
2018-11-26T17:21:33.318Z,29.47
2018-11-26T17:25:42.665Z,28.50
2018-11-26T17:29:47.475Z,30.87
2018-11-26T17:33:54.045Z,32.80
2018-11-26T17:38:02.008Z,29.63
2018-11-26T17:42:25.867Z,16.43
2018-11-26T17:46:32.729Z,21.37
2018-11-26T17:50:45.387Z,20.07
2018-11-26T17:54:53.204Z,12.53
2018-11-26T17:58:59.658Z,14.43
2018-11-26T18:03:06.869Z,17.30
2018-11-26T18:07:14.696Z,14.20
2018-11-26T18:11:21.911Z,21.37
2018-11-26T18:15:28.448Z,27.53
2018-11-26T18:19:52.201Z,20.43
2018-11-26T18:23:58.730Z,25.03
2018-11-26T18:28:09.038Z,22.37
2018-11-26T18:32:15.642Z,15.67
2018-11-26T18:36:22.316Z,16.73
2018-11-26T18:40:30.043Z,14.97
2018-11-26T18:44:38.671Z,29.03
2018-11-26T18:48:47.712Z,23.33
2018-11-26T18:52:53.259Z,12.73
2018-11-26T18:56:59.739Z,20.80
2018-11-26T19:01:08.072Z,22.90
2018-11-26T19:05:16.378Z,18.37
2018-11-26T19:09:23.400Z,24.43
2018-11-26T19:13:32.208Z,26.63
2018-11-26T19:17:39.314Z,24.13
2018-11-26T19:21:45.813Z,23.77
2018-11-26T19:25:54.368Z,24.77
2018-11-26T19:30:00.901Z,17.67
2018-11-26T19:34:14.588Z,27.63
2018-11-26T19:38:21.138Z,26.40
2018-11-26T19:42:28.215Z,39.67
2018-11-26T19:46:34.940Z,22.77
2018-11-26T19:50:44.478Z,29.90
2018-11-26T19:54:51.725Z,25.50
2018-11-26T19:58:58.768Z,14.20
2018-11-26T20:03:25.632Z,29.00
2018-11-26T20:07:32.627Z,18.70
2018-11-26T20:11:39.213Z,25.23
2018-11-26T20:15:45.950Z,21.33
2018-11-26T20:20:09.692Z,24.77
2018-11-26T20:24:35.158Z,27.40
2018-11-26T20:28:59.250Z,28.77
2018-11-26T20:33:23.706Z,25.50
2018-11-26T20:37:31.268Z,12.20
2018-11-26T20:41:37.975Z,24.17
2018-11-26T20:46:05.844Z,25.60
2018-11-26T20:50:17.155Z,17.80
2018-11-26T20:54:23.684Z,25.60
2018-11-26T20:58:32.188Z,25.73
2018-11-26T21:02:38.725Z,28.80
2018-11-26T21:06:45.499Z,30.27
2018-11-26T21:11:09.380Z,29.37
2018-11-26T21:15:22.594Z,22.53
2018-11-26T21:19:29.056Z,33.50
2018-11-26T21:23:53.225Z,31.87
2018-11-26T21:28:00.587Z,32.60
2018-11-26T21:32:15.075Z,25.73
2018-11-26T21:36:21.640Z,31.30
2018-11-26T21:40:28.412Z,38.23
2018-11-26T21:44:37.293Z,33.27
2018-11-26T21:49:02.181Z,30.07
2018-11-26T21:53:13.594Z,22.57
2018-11-26T21:57:40.939Z,30.50
2018-11-26T22:01:49.944Z,27.23
2018-11-26T22:05:59.916Z,13.67
2018-11-26T22:10:07.125Z,27.73
2018-11-26T22:14:31.422Z,30.53
2018-11-26T22:18:37.876Z,23.47
2018-11-26T22:22:46.795Z,18.10
2018-11-26T22:26:53.598Z,39.03
2018-11-26T22:31:02.810Z,24.40
2018-11-26T22:35:08.384Z,28.03
2018-11-26T22:39:15.736Z,41.93
2018-11-26T22:43:23.016Z,33.03
2018-11-26T22:47:52.187Z,41.80
2018-11-26T22:52:02.430Z,44.57
2018-11-26T22:56:10.057Z,44.93
2018-11-26T23:00:30.544Z,48.90
2018-11-26T23:04:38.004Z,47.00
2018-11-26T23:08:47.243Z,56.97
2018-11-26T23:12:53.944Z,38.43
2018-11-26T23:17:00.389Z,53.90
2018-11-26T23:21:10.323Z,56.40
2018-11-26T23:25:20.939Z,54.60
2018-11-26T23:29:28.306Z,47.03
2018-11-26T23:33:52.042Z,57.63
2018-11-26T23:37:59.637Z,65.67
2018-11-26T23:42:08.921Z,62.03
2018-11-26T23:46:16.641Z,53.87
2018-11-26T23:50:23.139Z,51.73
2018-11-26T23:54:29.922Z,68.63
2018-11-26T23:58:36.392Z,49.90
